sensor_id;sensor_type;location;lat;lon;timestamp;P1;durP1;ratioP1;P2;durP2;ratioP2
29030;SDS011;16122;50.236;11.734;2022-10-13T00:00:40;6.20;;;4.60;;
29030;SDS011;16122;50.236;11.734;2022-10-13T00:03:07;4.97;;;3.90;;
29030;SDS011;16122;50.236;11.734;2022-10-13T00:05:33;3.97;;;3.57;;
29030;SDS011;16122;50.236;11.734;2022-10-13T00:08:04;5.47;;;4.83;;
29030;SDS011;16122;50.236;11.734;2022-10-13T00:10:35;5.50;;;4.03;;
29030;SDS011;16122;50.236;11.734;2022-10-13T00:13:02;5.07;;;3.80;;
29030;SDS011;16122;50.236;11.734;2022-10-13T00:15:29;5.67;;;4.47;;
29030;SDS011;16122;50.236;11.734;2022-10-13T00:17:55;6.00;;;4.20;;
29030;SDS011;16122;50.236;11.734;2022-10-13T00:20:21;4.03;;;3.60;;
29030;SDS011;16122;50.236;11.734;2022-10-13T00:22:47;5.47;;;3.67;;
29030;SDS011;16122;50.236;11.734;2022-10-13T00:25:13;5.23;;;4.00;;
29030;SDS011;16122;50.236;11.734;2022-10-13T00:27:39;7.53;;;4.50;;
29030;SDS011;16122;50.236;11.734;2022-10-13T00:30:05;4.90;;;3.73;;
29030;SDS011;16122;50.236;11.734;2022-10-13T00:32:31;4.50;;;3.83;;
29030;SDS011;16122;50.236;11.734;2022-10-13T00:35:00;4.47;;;3.90;;
29030;SDS011;16122;50.236;11.734;2022-10-13T00:37:26;4.80;;;4.20;;
29030;SDS011;16122;50.236;11.734;2022-10-13T00:39:53;5.93;;;4.40;;
29030;SDS011;16122;50.236;11.734;2022-10-13T00:42:22;4.53;;;4.13;;
29030;SDS011;16122;50.236;11.734;2022-10-13T00:44:59;6.23;;;3.67;;
29030;SDS011;16122;50.236;11.734;2022-10-13T00:47:37;4.33;;;3.60;;
29030;SDS011;16122;50.236;11.734;2022-10-13T00:50:06;4.90;;;4.40;;
29030;SDS011;16122;50.236;11.734;2022-10-13T00:52:38;6.27;;;4.27;;
29030;SDS011;16122;50.236;11.734;2022-10-13T00:55:07;4.90;;;4.27;;
29030;SDS011;16122;50.236;11.734;2022-10-13T00:57:36;5.70;;;4.13;;
29030;SDS011;16122;50.236;11.734;2022-10-13T01:00:04;4.70;;;4.10;;
29030;SDS011;16122;50.236;11.734;2022-10-13T01:02:31;4.10;;;3.80;;
29030;SDS011;16122;50.236;11.734;2022-10-13T01:05:04;4.57;;;3.97;;
29030;SDS011;16122;50.236;11.734;2022-10-13T01:07:32;5.17;;;4.27;;
29030;SDS011;16122;50.236;11.734;2022-10-13T01:10:00;5.90;;;4.07;;
29030;SDS011;16122;50.236;11.734;2022-10-13T01:23:17;5.03;;;3.70;;
29030;SDS011;16122;50.236;11.734;2022-10-13T01:34:22;5.00;;;3.93;;
29030;SDS011;16122;50.236;11.734;2022-10-13T01:39:45;7.33;;;4.10;;
29030;SDS011;16122;50.236;11.734;2022-10-13T01:42:30;5.17;;;4.10;;
29030;SDS011;16122;50.236;11.734;2022-10-13T01:45:03;5.10;;;4.60;;
29030;SDS011;16122;50.236;11.734;2022-10-13T01:47:32;5.73;;;4.23;;
29030;SDS011;16122;50.236;11.734;2022-10-13T01:50:01;5.13;;;4.53;;
29030;SDS011;16122;50.236;11.734;2022-10-13T01:52:31;4.77;;;4.03;;
29030;SDS011;16122;50.236;11.734;2022-10-13T01:55:03;7.83;;;4.83;;
29030;SDS011;16122;50.236;11.734;2022-10-13T01:57:33;4.77;;;4.27;;
29030;SDS011;16122;50.236;11.734;2022-10-13T02:11:20;5.57;;;3.87;;
29030;SDS011;16122;50.236;11.734;2022-10-13T02:16:20;6.53;;;4.33;;
29030;SDS011;16122;50.236;11.734;2022-10-13T02:18:47;5.33;;;4.83;;
29030;SDS011;16122;50.236;11.734;2022-10-13T02:21:15;4.47;;;3.80;;
29030;SDS011;16122;50.236;11.734;2022-10-13T02:23:42;5.90;;;4.60;;
29030;SDS011;16122;50.236;11.734;2022-10-13T02:26:11;4.23;;;3.80;;
29030;SDS011;16122;50.236;11.734;2022-10-13T02:28:38;6.00;;;4.33;;
29030;SDS011;16122;50.236;11.734;2022-10-13T02:31:06;5.10;;;4.20;;
29030;SDS011;16122;50.236;11.734;2022-10-13T02:33:32;5.00;;;4.30;;
29030;SDS011;16122;50.236;11.734;2022-10-13T02:35:58;5.63;;;4.70;;
29030;SDS011;16122;50.236;11.734;2022-10-13T02:38:24;5.53;;;4.63;;
29030;SDS011;16122;50.236;11.734;2022-10-13T02:40:50;5.07;;;4.57;;
29030;SDS011;16122;50.236;11.734;2022-10-13T02:43:16;6.03;;;4.50;;
29030;SDS011;16122;50.236;11.734;2022-10-13T02:45:41;5.30;;;4.40;;
29030;SDS011;16122;50.236;11.734;2022-10-13T02:48:08;4.97;;;4.00;;
29030;SDS011;16122;50.236;11.734;2022-10-13T02:50:34;4.40;;;4.00;;
29030;SDS011;16122;50.236;11.734;2022-10-13T02:53:00;5.67;;;5.13;;
29030;SDS011;16122;50.236;11.734;2022-10-13T02:55:26;7.57;;;4.97;;
29030;SDS011;16122;50.236;11.734;2022-10-13T02:57:54;4.70;;;4.30;;
29030;SDS011;16122;50.236;11.734;2022-10-13T03:00:21;6.07;;;4.60;;
29030;SDS011;16122;50.236;11.734;2022-10-13T03:02:47;7.00;;;4.70;;
29030;SDS011;16122;50.236;11.734;2022-10-13T03:05:13;4.80;;;4.27;;
29030;SDS011;16122;50.236;11.734;2022-10-13T03:07:39;5.67;;;4.57;;
29030;SDS011;16122;50.236;11.734;2022-10-13T03:10:06;6.33;;;4.70;;
29030;SDS011;16122;50.236;11.734;2022-10-13T03:12:32;6.20;;;5.10;;
29030;SDS011;16122;50.236;11.734;2022-10-13T03:14:58;5.30;;;4.20;;
29030;SDS011;16122;50.236;11.734;2022-10-13T03:17:24;6.40;;;4.50;;
29030;SDS011;16122;50.236;11.734;2022-10-13T03:19:49;6.30;;;4.93;;
29030;SDS011;16122;50.236;11.734;2022-10-13T03:22:16;6.27;;;5.20;;
29030;SDS011;16122;50.236;11.734;2022-10-13T03:24:42;6.37;;;4.70;;
29030;SDS011;16122;50.236;11.734;2022-10-13T03:27:08;5.53;;;4.00;;
29030;SDS011;16122;50.236;11.734;2022-10-13T03:29:35;5.67;;;4.70;;
29030;SDS011;16122;50.236;11.734;2022-10-13T03:32:00;5.37;;;4.87;;
29030;SDS011;16122;50.236;11.734;2022-10-13T03:34:26;7.03;;;4.93;;
29030;SDS011;16122;50.236;11.734;2022-10-13T03:36:53;4.33;;;3.93;;
29030;SDS011;16122;50.236;11.734;2022-10-13T03:39:19;5.90;;;5.00;;
29030;SDS011;16122;50.236;11.734;2022-10-13T03:41:46;5.10;;;4.27;;
29030;SDS011;16122;50.236;11.734;2022-10-13T03:44:12;5.90;;;4.90;;
29030;SDS011;16122;50.236;11.734;2022-10-13T03:46:38;5.30;;;4.20;;
29030;SDS011;16122;50.236;11.734;2022-10-13T03:49:04;5.30;;;4.20;;
29030;SDS011;16122;50.236;11.734;2022-10-13T03:51:30;5.23;;;4.73;;
29030;SDS011;16122;50.236;11.734;2022-10-13T03:53:56;7.37;;;5.87;;
29030;SDS011;16122;50.236;11.734;2022-10-13T03:56:23;6.90;;;4.90;;
29030;SDS011;16122;50.236;11.734;2022-10-13T03:58:51;7.57;;;5.20;;
29030;SDS011;16122;50.236;11.734;2022-10-13T04:01:22;9.57;;;4.87;;
29030;SDS011;16122;50.236;11.734;2022-10-13T04:03:49;6.40;;;4.53;;
29030;SDS011;16122;50.236;11.734;2022-10-13T04:06:16;5.50;;;4.90;;
29030;SDS011;16122;50.236;11.734;2022-10-13T04:08:42;10.17;;;5.70;;
29030;SDS011;16122;50.236;11.734;2022-10-13T04:11:10;5.87;;;4.63;;
29030;SDS011;16122;50.236;11.734;2022-10-13T04:13:38;6.43;;;4.80;;
29030;SDS011;16122;50.236;11.734;2022-10-13T04:16:06;5.47;;;4.70;;
29030;SDS011;16122;50.236;11.734;2022-10-13T04:18:37;7.67;;;5.60;;
29030;SDS011;16122;50.236;11.734;2022-10-13T04:21:10;7.53;;;5.43;;
29030;SDS011;16122;50.236;11.734;2022-10-13T04:23:38;6.03;;;4.83;;
29030;SDS011;16122;50.236;11.734;2022-10-13T04:26:04;6.70;;;5.40;;
29030;SDS011;16122;50.236;11.734;2022-10-13T04:28:31;5.90;;;5.07;;
29030;SDS011;16122;50.236;11.734;2022-10-13T04:31:03;5.07;;;4.53;;
29030;SDS011;16122;50.236;11.734;2022-10-13T04:33:29;7.30;;;5.13;;
29030;SDS011;16122;50.236;11.734;2022-10-13T04:35:55;5.13;;;4.50;;
29030;SDS011;16122;50.236;11.734;2022-10-13T04:38:21;6.43;;;4.90;;
29030;SDS011;16122;50.236;11.734;2022-10-13T04:40:50;8.80;;;5.50;;
29030;SDS011;16122;50.236;11.734;2022-10-13T04:43:16;7.27;;;4.77;;
29030;SDS011;16122;50.236;11.734;2022-10-13T04:45:42;5.70;;;4.70;;
29030;SDS011;16122;50.236;11.734;2022-10-13T04:48:08;8.53;;;5.33;;
29030;SDS011;16122;50.236;11.734;2022-10-13T04:50:33;9.57;;;5.00;;
29030;SDS011;16122;50.236;11.734;2022-10-13T04:53:00;6.53;;;5.83;;
29030;SDS011;16122;50.236;11.734;2022-10-13T04:55:26;9.30;;;5.27;;
29030;SDS011;16122;50.236;11.734;2022-10-13T04:57:54;8.30;;;5.00;;
29030;SDS011;16122;50.236;11.734;2022-10-13T05:00:20;6.83;;;4.83;;
29030;SDS011;16122;50.236;11.734;2022-10-13T05:02:47;4.97;;;4.20;;
29030;SDS011;16122;50.236;11.734;2022-10-13T05:05:12;8.03;;;5.50;;
29030;SDS011;16122;50.236;11.734;2022-10-13T05:07:38;8.13;;;4.80;;
29030;SDS011;16122;50.236;11.734;2022-10-13T05:10:04;8.13;;;5.30;;
29030;SDS011;16122;50.236;11.734;2022-10-13T05:12:30;6.47;;;5.10;;
29030;SDS011;16122;50.236;11.734;2022-10-13T05:14:56;6.30;;;5.30;;
29030;SDS011;16122;50.236;11.734;2022-10-13T05:17:23;6.00;;;4.60;;
29030;SDS011;16122;50.236;11.734;2022-10-13T05:19:48;9.00;;;4.40;;
29030;SDS011;16122;50.236;11.734;2022-10-13T05:22:14;6.80;;;5.10;;
29030;SDS011;16122;50.236;11.734;2022-10-13T05:24:41;8.33;;;4.73;;
29030;SDS011;16122;50.236;11.734;2022-10-13T05:27:10;6.20;;;5.00;;
29030;SDS011;16122;50.236;11.734;2022-10-13T05:29:37;6.77;;;5.07;;
29030;SDS011;16122;50.236;11.734;2022-10-13T05:32:04;7.43;;;5.10;;
29030;SDS011;16122;50.236;11.734;2022-10-13T05:34:30;5.93;;;4.70;;
29030;SDS011;16122;50.236;11.734;2022-10-13T05:36:57;7.50;;;5.50;;
29030;SDS011;16122;50.236;11.734;2022-10-13T05:39:23;8.57;;;4.77;;
29030;SDS011;16122;50.236;11.734;2022-10-13T05:41:49;4.70;;;4.30;;
29030;SDS011;16122;50.236;11.734;2022-10-13T05:44:21;6.63;;;5.33;;
29030;SDS011;16122;50.236;11.734;2022-10-13T05:46:54;5.90;;;4.70;;
29030;SDS011;16122;50.236;11.734;2022-10-13T05:49:20;6.13;;;4.70;;
29030;SDS011;16122;50.236;11.734;2022-10-13T05:51:46;7.50;;;5.20;;
29030;SDS011;16122;50.236;11.734;2022-10-13T05:54:20;7.40;;;4.97;;
29030;SDS011;16122;50.236;11.734;2022-10-13T05:57:16;6.87;;;5.23;;
29030;SDS011;16122;50.236;11.734;2022-10-13T05:59:49;5.67;;;4.63;;
29030;SDS011;16122;50.236;11.734;2022-10-13T06:02:19;6.83;;;5.50;;
29030;SDS011;16122;50.236;11.734;2022-10-13T06:04:49;9.60;;;4.77;;
29030;SDS011;16122;50.236;11.734;2022-10-13T06:07:18;5.53;;;4.87;;
29030;SDS011;16122;50.236;11.734;2022-10-13T06:09:44;7.60;;;4.47;;
29030;SDS011;16122;50.236;11.734;2022-10-13T06:12:10;7.00;;;5.00;;
29030;SDS011;16122;50.236;11.734;2022-10-13T06:14:36;5.77;;;4.10;;
29030;SDS011;16122;50.236;11.734;2022-10-13T06:17:06;6.47;;;5.33;;
29030;SDS011;16122;50.236;11.734;2022-10-13T06:19:32;5.50;;;5.00;;
29030;SDS011;16122;50.236;11.734;2022-10-13T06:22:05;7.30;;;5.07;;
29030;SDS011;16122;50.236;11.734;2022-10-13T06:24:31;8.33;;;5.27;;
29030;SDS011;16122;50.236;11.734;2022-10-13T06:26:57;4.97;;;4.47;;
29030;SDS011;16122;50.236;11.734;2022-10-13T06:29:23;6.00;;;5.20;;
29030;SDS011;16122;50.236;11.734;2022-10-13T06:31:49;4.83;;;4.37;;
29030;SDS011;16122;50.236;11.734;2022-10-13T06:34:15;6.33;;;5.27;;
29030;SDS011;16122;50.236;11.734;2022-10-13T06:36:43;5.93;;;4.97;;
29030;SDS011;16122;50.236;11.734;2022-10-13T06:39:10;5.77;;;4.70;;
29030;SDS011;16122;50.236;11.734;2022-10-13T06:41:36;5.17;;;4.60;;
29030;SDS011;16122;50.236;11.734;2022-10-13T06:44:03;5.20;;;4.40;;
29030;SDS011;16122;50.236;11.734;2022-10-13T06:46:29;6.00;;;4.73;;
29030;SDS011;16122;50.236;11.734;2022-10-13T06:48:55;7.03;;;5.43;;
29030;SDS011;16122;50.236;11.734;2022-10-13T06:51:22;8.37;;;5.27;;
29030;SDS011;16122;50.236;11.734;2022-10-13T06:53:48;5.90;;;5.30;;
29030;SDS011;16122;50.236;11.734;2022-10-13T06:56:20;9.97;;;5.30;;
29030;SDS011;16122;50.236;11.734;2022-10-13T06:58:48;5.20;;;4.67;;
29030;SDS011;16122;50.236;11.734;2022-10-13T07:01:14;5.77;;;5.20;;
29030;SDS011;16122;50.236;11.734;2022-10-13T07:03:40;8.27;;;6.27;;
29030;SDS011;16122;50.236;11.734;2022-10-13T07:06:06;7.20;;;5.00;;
29030;SDS011;16122;50.236;11.734;2022-10-13T07:08:32;7.53;;;5.50;;
29030;SDS011;16122;50.236;11.734;2022-10-13T07:11:04;5.73;;;5.10;;
29030;SDS011;16122;50.236;11.734;2022-10-13T07:13:34;6.50;;;4.87;;
29030;SDS011;16122;50.236;11.734;2022-10-13T07:16:03;9.70;;;5.90;;
29030;SDS011;16122;50.236;11.734;2022-10-13T07:18:30;5.70;;;5.10;;
29030;SDS011;16122;50.236;11.734;2022-10-13T07:20:56;7.60;;;4.93;;
29030;SDS011;16122;50.236;11.734;2022-10-13T07:23:24;9.33;;;5.50;;
29030;SDS011;16122;50.236;11.734;2022-10-13T07:25:50;5.70;;;5.10;;
29030;SDS011;16122;50.236;11.734;2022-10-13T07:28:16;8.30;;;6.07;;
29030;SDS011;16122;50.236;11.734;2022-10-13T07:30:43;6.27;;;4.97;;
29030;SDS011;16122;50.236;11.734;2022-10-13T07:33:09;8.47;;;5.93;;
29030;SDS011;16122;50.236;11.734;2022-10-13T07:35:38;7.47;;;5.37;;
29030;SDS011;16122;50.236;11.734;2022-10-13T07:38:05;7.27;;;4.83;;
29030;SDS011;16122;50.236;11.734;2022-10-13T07:40:31;8.43;;;5.90;;
29030;SDS011;16122;50.236;11.734;2022-10-13T07:42:57;6.43;;;5.33;;
29030;SDS011;16122;50.236;11.734;2022-10-13T07:45:23;7.80;;;6.10;;
29030;SDS011;16122;50.236;11.734;2022-10-13T07:47:49;9.27;;;6.40;;
29030;SDS011;16122;50.236;11.734;2022-10-13T07:50:15;11.13;;;6.00;;
29030;SDS011;16122;50.236;11.734;2022-10-13T07:52:40;7.70;;;6.00;;
29030;SDS011;16122;50.236;11.734;2022-10-13T07:55:10;9.27;;;6.33;;
29030;SDS011;16122;50.236;11.734;2022-10-13T07:57:36;11.43;;;7.67;;
29030;SDS011;16122;50.236;11.734;2022-10-13T08:00:03;12.13;;;7.17;;
29030;SDS011;16122;50.236;11.734;2022-10-13T08:02:37;12.13;;;6.73;;
29030;SDS011;16122;50.236;11.734;2022-10-13T08:05:04;8.57;;;6.47;;
29030;SDS011;16122;50.236;11.734;2022-10-13T08:07:30;8.23;;;6.27;;
29030;SDS011;16122;50.236;11.734;2022-10-13T08:09:56;10.43;;;6.10;;
29030;SDS011;16122;50.236;11.734;2022-10-13T08:12:22;9.10;;;6.83;;
29030;SDS011;16122;50.236;11.734;2022-10-13T08:14:51;6.63;;;5.77;;
29030;SDS011;16122;50.236;11.734;2022-10-13T08:17:17;13.13;;;6.20;;
29030;SDS011;16122;50.236;11.734;2022-10-13T08:19:43;10.67;;;6.43;;
29030;SDS011;16122;50.236;11.734;2022-10-13T08:22:09;10.20;;;7.10;;
29030;SDS011;16122;50.236;11.734;2022-10-13T08:24:35;11.37;;;6.73;;
29030;SDS011;16122;50.236;11.734;2022-10-13T08:27:01;9.50;;;6.47;;
29030;SDS011;16122;50.236;11.734;2022-10-13T08:29:32;10.40;;;6.00;;
29030;SDS011;16122;50.236;11.734;2022-10-13T08:31:58;9.50;;;7.10;;
29030;SDS011;16122;50.236;11.734;2022-10-13T08:34:24;12.10;;;6.17;;
29030;SDS011;16122;50.236;11.734;2022-10-13T08:36:50;13.40;;;6.50;;
29030;SDS011;16122;50.236;11.734;2022-10-13T08:39:18;10.67;;;6.33;;
29030;SDS011;16122;50.236;11.734;2022-10-13T08:41:45;7.67;;;6.37;;
29030;SDS011;16122;50.236;11.734;2022-10-13T08:46:48;12.27;;;6.20;;
29030;SDS011;16122;50.236;11.734;2022-10-13T08:49:26;7.63;;;6.10;;
29030;SDS011;16122;50.236;11.734;2022-10-13T08:51:52;10.60;;;6.80;;
29030;SDS011;16122;50.236;11.734;2022-10-13T08:54:18;8.87;;;5.97;;
29030;SDS011;16122;50.236;11.734;2022-10-13T08:56:46;8.90;;;6.80;;
29030;SDS011;16122;50.236;11.734;2022-10-13T08:59:15;12.43;;;7.20;;
29030;SDS011;16122;50.236;11.734;2022-10-13T09:01:42;8.37;;;6.60;;
29030;SDS011;16122;50.236;11.734;2022-10-13T09:06:52;8.50;;;6.33;;
29030;SDS011;16122;50.236;11.734;2022-10-13T09:09:22;9.00;;;6.37;;
29030;SDS011;16122;50.236;11.734;2022-10-13T09:11:48;11.33;;;6.83;;
29030;SDS011;16122;50.236;11.734;2022-10-13T09:14:25;9.00;;;6.87;;
29030;SDS011;16122;50.236;11.734;2022-10-13T09:16:54;8.90;;;6.80;;
29030;SDS011;16122;50.236;11.734;2022-10-13T09:21:58;9.27;;;6.00;;
29030;SDS011;16122;50.236;11.734;2022-10-13T09:24:43;7.07;;;6.07;;
29030;SDS011;16122;50.236;11.734;2022-10-13T09:27:14;12.63;;;7.20;;
29030;SDS011;16122;50.236;11.734;2022-10-13T09:29:41;12.70;;;7.10;;
29030;SDS011;16122;50.236;11.734;2022-10-13T09:32:16;11.73;;;7.70;;
29030;SDS011;16122;50.236;11.734;2022-10-13T09:34:44;10.20;;;6.90;;
29030;SDS011;16122;50.236;11.734;2022-10-13T09:37:16;10.17;;;6.37;;
29030;SDS011;16122;50.236;11.734;2022-10-13T09:42:51;9.00;;;6.00;;
29030;SDS011;16122;50.236;11.734;2022-10-13T09:45:19;8.23;;;6.60;;
29030;SDS011;16122;50.236;11.734;2022-10-13T09:47:58;10.50;;;7.17;;
29030;SDS011;16122;50.236;11.734;2022-10-13T09:50:29;9.10;;;6.83;;
29030;SDS011;16122;50.236;11.734;2022-10-13T09:55:41;11.20;;;7.00;;
29030;SDS011;16122;50.236;11.734;2022-10-13T09:58:11;10.70;;;6.57;;
29030;SDS011;16122;50.236;11.734;2022-10-13T10:00:39;7.13;;;6.33;;
29030;SDS011;16122;50.236;11.734;2022-10-13T10:03:11;5.83;;;5.07;;
29030;SDS011;16122;50.236;11.734;2022-10-13T10:05:48;8.93;;;5.43;;
29030;SDS011;16122;50.236;11.734;2022-10-13T10:10:52;9.20;;;6.93;;
29030;SDS011;16122;50.236;11.734;2022-10-13T10:13:19;9.73;;;6.73;;
29030;SDS011;16122;50.236;11.734;2022-10-13T10:18:31;9.80;;;6.17;;
29030;SDS011;16122;50.236;11.734;2022-10-13T10:21:14;10.90;;;7.50;;
29030;SDS011;16122;50.236;11.734;2022-10-13T10:26:56;11.97;;;7.83;;
29030;SDS011;16122;50.236;11.734;2022-10-13T10:37:19;15.53;;;6.90;;
29030;SDS011;16122;50.236;11.734;2022-10-13T10:45:13;13.60;;;7.57;;
29030;SDS011;16122;50.236;11.734;2022-10-13T10:47:43;9.33;;;6.70;;
29030;SDS011;16122;50.236;11.734;2022-10-13T10:50:16;13.47;;;7.67;;
29030;SDS011;16122;50.236;11.734;2022-10-13T10:55:33;9.70;;;6.80;;
29030;SDS011;16122;50.236;11.734;2022-10-13T10:58:40;10.83;;;6.73;;
29030;SDS011;16122;50.236;11.734;2022-10-13T11:06:56;10.77;;;6.53;;
29030;SDS011;16122;50.236;11.734;2022-10-13T11:09:59;13.50;;;6.87;;
29030;SDS011;16122;50.236;11.734;2022-10-13T11:14:45;10.10;;;7.10;;
29030;SDS011;16122;50.236;11.734;2022-10-13T11:17:16;11.70;;;6.90;;
29030;SDS011;16122;50.236;11.734;2022-10-13T11:19:44;10.90;;;7.03;;
29030;SDS011;16122;50.236;11.734;2022-10-13T11:22:15;10.37;;;6.13;;
29030;SDS011;16122;50.236;11.734;2022-10-13T11:24:49;10.40;;;6.77;;
29030;SDS011;16122;50.236;11.734;2022-10-13T11:27:17;10.87;;;6.27;;
29030;SDS011;16122;50.236;11.734;2022-10-13T11:29:50;10.10;;;7.33;;
29030;SDS011;16122;50.236;11.734;2022-10-13T11:40:23;11.17;;;6.40;;
29030;SDS011;16122;50.236;11.734;2022-10-13T11:43:16;8.83;;;6.70;;
29030;SDS011;16122;50.236;11.734;2022-10-13T11:48:53;10.17;;;6.17;;
29030;SDS011;16122;50.236;11.734;2022-10-13T11:56:57;7.40;;;5.70;;
29030;SDS011;16122;50.236;11.734;2022-10-13T11:59:33;7.27;;;5.67;;
29030;SDS011;16122;50.236;11.734;2022-10-13T12:04:38;10.20;;;6.40;;
29030;SDS011;16122;50.236;11.734;2022-10-13T12:07:06;10.40;;;5.93;;
29030;SDS011;16122;50.236;11.734;2022-10-13T12:09:35;11.33;;;6.67;;
29030;SDS011;16122;50.236;11.734;2022-10-13T12:12:13;9.07;;;6.73;;
29030;SDS011;16122;50.236;11.734;2022-10-13T12:14:42;9.30;;;6.47;;
29030;SDS011;16122;50.236;11.734;2022-10-13T12:17:20;8.40;;;7.20;;
29030;SDS011;16122;50.236;11.734;2022-10-13T12:19:52;10.33;;;7.30;;
29030;SDS011;16122;50.236;11.734;2022-10-13T12:22:20;10.27;;;7.50;;
29030;SDS011;16122;50.236;11.734;2022-10-13T12:24:59;9.17;;;6.93;;
29030;SDS011;16122;50.236;11.734;2022-10-13T12:27:27;11.03;;;8.07;;
29030;SDS011;16122;50.236;11.734;2022-10-13T12:29:57;11.97;;;7.20;;
29030;SDS011;16122;50.236;11.734;2022-10-13T12:32:28;9.90;;;7.33;;
29030;SDS011;16122;50.236;11.734;2022-10-13T12:34:55;8.50;;;6.93;;
29030;SDS011;16122;50.236;11.734;2022-10-13T12:37:33;10.27;;;7.23;;
29030;SDS011;16122;50.236;11.734;2022-10-13T12:40:01;9.30;;;6.70;;
29030;SDS011;16122;50.236;11.734;2022-10-13T12:42:32;8.93;;;6.90;;
29030;SDS011;16122;50.236;11.734;2022-10-13T12:45:00;11.27;;;7.67;;
29030;SDS011;16122;50.236;11.734;2022-10-13T12:47:34;8.63;;;6.90;;
29030;SDS011;16122;50.236;11.734;2022-10-13T12:52:49;10.67;;;7.80;;
29030;SDS011;16122;50.236;11.734;2022-10-13T12:55:17;11.70;;;8.70;;
29030;SDS011;16122;50.236;11.734;2022-10-13T12:57:44;10.83;;;7.30;;
29030;SDS011;16122;50.236;11.734;2022-10-13T13:08:05;11.63;;;8.23;;
29030;SDS011;16122;50.236;11.734;2022-10-13T13:11:22;11.93;;;7.50;;
29030;SDS011;16122;50.236;11.734;2022-10-13T13:13:47;10.00;;;7.40;;
29030;SDS011;16122;50.236;11.734;2022-10-13T13:16:18;12.03;;;7.33;;
29030;SDS011;16122;50.236;11.734;2022-10-13T13:18:48;12.37;;;6.83;;
29030;SDS011;16122;50.236;11.734;2022-10-13T13:21:17;11.50;;;8.10;;
29030;SDS011;16122;50.236;11.734;2022-10-13T13:23:47;12.63;;;7.30;;
29030;SDS011;16122;50.236;11.734;2022-10-13T13:26:14;9.73;;;7.30;;
29030;SDS011;16122;50.236;11.734;2022-10-13T13:28:47;12.03;;;8.13;;
29030;SDS011;16122;50.236;11.734;2022-10-13T13:31:18;9.90;;;7.20;;
29030;SDS011;16122;50.236;11.734;2022-10-13T13:33:46;13.60;;;7.63;;
29030;SDS011;16122;50.236;11.734;2022-10-13T13:36:13;7.20;;;6.23;;
29030;SDS011;16122;50.236;11.734;2022-10-13T13:38:42;10.70;;;7.13;;
29030;SDS011;16122;50.236;11.734;2022-10-13T13:41:09;10.20;;;7.20;;
29030;SDS011;16122;50.236;11.734;2022-10-13T13:43:36;9.37;;;7.20;;
29030;SDS011;16122;50.236;11.734;2022-10-13T13:46:02;7.87;;;6.23;;
29030;SDS011;16122;50.236;11.734;2022-10-13T13:48:30;11.57;;;7.27;;
29030;SDS011;16122;50.236;11.734;2022-10-13T13:50:56;7.17;;;6.10;;
29030;SDS011;16122;50.236;11.734;2022-10-13T13:53:22;9.70;;;6.43;;
29030;SDS011;16122;50.236;11.734;2022-10-13T13:55:48;6.20;;;5.57;;
29030;SDS011;16122;50.236;11.734;2022-10-13T13:58:16;9.10;;;6.80;;
29030;SDS011;16122;50.236;11.734;2022-10-13T14:00:42;14.90;;;7.70;;
29030;SDS011;16122;50.236;11.734;2022-10-13T14:03:08;8.23;;;6.10;;
29030;SDS011;16122;50.236;11.734;2022-10-13T14:05:37;8.80;;;6.17;;
29030;SDS011;16122;50.236;11.734;2022-10-13T14:08:04;10.50;;;5.90;;
29030;SDS011;16122;50.236;11.734;2022-10-13T14:10:30;9.17;;;6.27;;
29030;SDS011;16122;50.236;11.734;2022-10-13T14:12:56;8.60;;;5.73;;
29030;SDS011;16122;50.236;11.734;2022-10-13T14:15:22;8.07;;;5.90;;
29030;SDS011;16122;50.236;11.734;2022-10-13T14:17:50;7.70;;;5.60;;
29030;SDS011;16122;50.236;11.734;2022-10-13T14:20:16;9.20;;;6.27;;
29030;SDS011;16122;50.236;11.734;2022-10-13T14:22:43;8.60;;;6.90;;
29030;SDS011;16122;50.236;11.734;2022-10-13T14:25:09;8.07;;;6.40;;
29030;SDS011;16122;50.236;11.734;2022-10-13T14:27:35;8.60;;;5.63;;
29030;SDS011;16122;50.236;11.734;2022-10-13T14:30:05;8.00;;;6.17;;
29030;SDS011;16122;50.236;11.734;2022-10-13T14:32:33;5.60;;;5.10;;
29030;SDS011;16122;50.236;11.734;2022-10-13T14:35:00;7.03;;;5.70;;
29030;SDS011;16122;50.236;11.734;2022-10-13T14:37:27;9.60;;;6.10;;
29030;SDS011;16122;50.236;11.734;2022-10-13T14:39:52;7.00;;;5.57;;
29030;SDS011;16122;50.236;11.734;2022-10-13T14:42:19;8.00;;;6.00;;
29030;SDS011;16122;50.236;11.734;2022-10-13T14:44:44;10.33;;;5.80;;
29030;SDS011;16122;50.236;11.734;2022-10-13T14:47:10;7.90;;;7.07;;
29030;SDS011;16122;50.236;11.734;2022-10-13T14:49:36;13.10;;;5.60;;
29030;SDS011;16122;50.236;11.734;2022-10-13T14:52:02;6.50;;;5.60;;
29030;SDS011;16122;50.236;11.734;2022-10-13T14:54:29;8.80;;;5.30;;
29030;SDS011;16122;50.236;11.734;2022-10-13T14:56:54;6.57;;;5.90;;
29030;SDS011;16122;50.236;11.734;2022-10-13T14:59:20;6.73;;;5.27;;
29030;SDS011;16122;50.236;11.734;2022-10-13T15:01:47;7.87;;;6.47;;
29030;SDS011;16122;50.236;11.734;2022-10-13T15:04:13;8.23;;;5.57;;
29030;SDS011;16122;50.236;11.734;2022-10-13T15:06:39;7.10;;;5.73;;
29030;SDS011;16122;50.236;11.734;2022-10-13T15:09:07;6.00;;;5.30;;
29030;SDS011;16122;50.236;11.734;2022-10-13T15:11:34;6.93;;;5.47;;
29030;SDS011;16122;50.236;11.734;2022-10-13T15:14:00;7.27;;;5.73;;
29030;SDS011;16122;50.236;11.734;2022-10-13T15:16:27;13.53;;;6.10;;
29030;SDS011;16122;50.236;11.734;2022-10-13T15:18:54;8.83;;;5.57;;
29030;SDS011;16122;50.236;11.734;2022-10-13T15:21:21;7.37;;;6.10;;
29030;SDS011;16122;50.236;11.734;2022-10-13T15:23:48;6.57;;;5.37;;
29030;SDS011;16122;50.236;11.734;2022-10-13T15:26:14;7.90;;;5.60;;
29030;SDS011;16122;50.236;11.734;2022-10-13T15:28:43;6.47;;;5.03;;
29030;SDS011;16122;50.236;11.734;2022-10-13T15:31:12;6.30;;;5.70;;
29030;SDS011;16122;50.236;11.734;2022-10-13T15:33:46;14.30;;;6.10;;
29030;SDS011;16122;50.236;11.734;2022-10-13T15:36:16;6.10;;;5.37;;
29030;SDS011;16122;50.236;11.734;2022-10-13T15:38:42;7.13;;;5.00;;
29030;SDS011;16122;50.236;11.734;2022-10-13T15:41:08;8.23;;;6.10;;
29030;SDS011;16122;50.236;11.734;2022-10-13T15:43:35;8.30;;;5.67;;
29030;SDS011;16122;50.236;11.734;2022-10-13T15:46:02;6.43;;;5.10;;
29030;SDS011;16122;50.236;11.734;2022-10-13T15:48:30;7.67;;;5.47;;
29030;SDS011;16122;50.236;11.734;2022-10-13T15:50:57;7.50;;;6.40;;
29030;SDS011;16122;50.236;11.734;2022-10-13T15:53:23;5.60;;;5.10;;
29030;SDS011;16122;50.236;11.734;2022-10-13T15:55:49;7.57;;;5.20;;
29030;SDS011;16122;50.236;11.734;2022-10-13T15:58:14;6.73;;;5.40;;
29030;SDS011;16122;50.236;11.734;2022-10-13T16:00:41;6.57;;;5.60;;
29030;SDS011;16122;50.236;11.734;2022-10-13T16:03:11;6.00;;;4.90;;
29030;SDS011;16122;50.236;11.734;2022-10-13T16:05:39;8.47;;;5.37;;
29030;SDS011;16122;50.236;11.734;2022-10-13T16:08:06;7.63;;;5.60;;
29030;SDS011;16122;50.236;11.734;2022-10-13T16:10:32;8.30;;;5.30;;
29030;SDS011;16122;50.236;11.734;2022-10-13T16:12:58;8.10;;;5.27;;
29030;SDS011;16122;50.236;11.734;2022-10-13T16:15:24;8.37;;;5.43;;
29030;SDS011;16122;50.236;11.734;2022-10-13T16:17:50;7.27;;;5.90;;
29030;SDS011;16122;50.236;11.734;2022-10-13T16:20:16;6.67;;;5.53;;
29030;SDS011;16122;50.236;11.734;2022-10-13T16:22:42;12.10;;;6.10;;
29030;SDS011;16122;50.236;11.734;2022-10-13T16:25:09;8.50;;;5.40;;
29030;SDS011;16122;50.236;11.734;2022-10-13T16:27:35;7.73;;;5.67;;
29030;SDS011;16122;50.236;11.734;2022-10-13T16:30:01;9.30;;;5.90;;